Appleton, MN

9:16 PM CDT on August 17, 2017 (GMT -0500)
Appleton Municipal

Weather History for KAQP - November, 2014

Change the Weather History Date:

Monday, November 24, 2014

  Actual Average Record
Temperature  
Mean Temperature 18 °F -  
Max Temperature 23 °F 33 °F 57 °F (2011)
Min Temperature 12 °F 17 °F 3 °F (1997)
Degree Days  
Heating Degree Days 48    
Moisture  
Dew Point 11 °F    
Average Humidity 77    
Maximum Humidity 86    
Minimum Humidity 68    
Precipitation  
Precipitation 0.00 in - - ()
Sea Level Pressure  
Sea Level Pressure 29.72 in    
Wind  
Wind Speed 24 mph (NW)    
Max Wind Speed 31 mph    
Max Gust Speed 39 mph    
Visibility 9 miles    
Events Snow    
Averages and records for this station are not official NWS values.
T = Trace of Precipitation, MM = Missing Value Source: NWS Daily Summary

Daily Weather History Graph

Daily Weather History Graph

Search for Another Location

Airport or City:

Trip Planner

Search our weather history database for the weather conditions in past years. The results will help you decide how hot, cold, wet, or windy it might be!

Date:

Astronomy

Nov. 24, 2014 Rise Set
Actual Time 7:34 AM CST 4:46 PM CST
Civil Twilight 7:01 AM CST 5:19 PM CST
Nautical Twilight 6:25 AM CST 5:55 PM CST
Astronomical Twilight 5:49 AM CST 6:31 PM CST
Moon 9:27 AM CST (11/24) 7:10 PM CST (11/24)
Length of Visible Light 10h 17m
Length of Day
9h 12m
Waxing Crescent, 6% of the Moon is Illuminated
Nov 24
Waxing Crescent
Nov 29
First Quarter
Dec 6
Full
Dec 14
Last Quarter
Dec 21
New

Hourly Weather History & Observations

Time (CST) Temp. Windchill Dew Point Humidity Pressure Visibility Wind Dir Wind Speed Gust Speed Precip Events Conditions
12:14 AM 23.0 °F 8.0 °F 19.4 °F 86% 29.51 in 10.0 mi NNW 20.7 mph 32.2 mph N/A   Overcast
12:34 AM 21.2 °F 3.5 °F 17.6 °F 86% 29.51 in 10.0 mi NNW 27.6 mph 31.1 mph N/A   Overcast
12:55 AM 21.2 °F 4.2 °F 17.6 °F 86% 29.51 in 10.0 mi NNW 25.3 mph 35.7 mph N/A   Overcast
1:15 AM 21.2 °F 5.2 °F 15.8 °F 80% 29.51 in 10.0 mi NNW 21.9 mph 35.7 mph N/A   Mostly Cloudy
1:34 AM 21.2 °F 5.2 °F 15.8 °F 80% 29.51 in 10.0 mi NW 21.9 mph 28.8 mph N/A   Overcast
1:54 AM 19.4 °F 1.8 °F 15.8 °F 86% 29.51 in 10.0 mi NNW 25.3 mph 28.8 mph N/A   Overcast
2:14 AM 19.4 °F 1.4 °F 15.8 °F 86% 29.51 in 10.0 mi NNW 26.5 mph 29.9 mph N/A   Mostly Cloudy
2:34 AM 19.4 °F 2.1 °F 14.0 °F 80% 29.52 in 10.0 mi NNW 24.2 mph 32.2 mph N/A   Mostly Cloudy
2:54 AM 19.4 °F 0.8 °F 12.2 °F 74% 29.52 in 10.0 mi NNW 28.8 mph 35.7 mph N/A   Overcast
3:14 AM 19.4 °F 1.1 °F 12.2 °F 74% 29.52 in 10.0 mi NNW 27.6 mph 35.7 mph N/A   Overcast
3:34 AM 17.6 °F -1.3 °F 12.2 °F 79% 29.51 in 10.0 mi NNW 27.6 mph 38.0 mph N/A   Overcast
3:54 AM 17.6 °F -0.3 °F 12.2 °F 79% 29.52 in 10.0 mi NW 24.2 mph 34.5 mph N/A   Overcast
4:15 AM 17.6 °F -1.0 °F 12.2 °F 79% 29.53 in 10.0 mi NW 26.5 mph 36.8 mph N/A   Overcast
4:35 AM 17.6 °F -0.6 °F 12.2 °F 79% 29.53 in 10.0 mi NW 25.3 mph - N/A   Overcast
4:54 AM 17.6 °F -1.0 °F 12.2 °F 79% 29.54 in 7.0 mi NNW 26.5 mph 29.9 mph N/A Snow Light Snow
5:14 AM 17.6 °F -1.3 °F 10.4 °F 73% 29.53 in 10.0 mi NW 27.6 mph 34.5 mph N/A   Overcast
5:35 AM 17.6 °F -1.9 °F 10.4 °F 73% 29.54 in 10.0 mi NW 29.9 mph 35.7 mph N/A   Overcast
5:54 AM 17.6 °F -1.0 °F 10.4 °F 73% 29.55 in 10.0 mi NW 26.5 mph 35.7 mph N/A   Overcast
6:15 AM 15.8 °F -4.7 °F 10.4 °F 79% 29.56 in 10.0 mi NW 31.1 mph 35.7 mph N/A Snow Light Snow
6:35 AM 15.8 °F -1.9 °F 10.4 °F 79% 29.57 in 10.0 mi NW 21.9 mph 33.4 mph N/A   Overcast
6:55 AM 15.8 °F -4.1 °F 10.4 °F 79% 29.57 in 10.0 mi NW 28.8 mph 35.7 mph N/A Snow Light Snow
7:14 AM 15.8 °F -4.4 °F 10.4 °F 79% 29.58 in 7.0 mi NW 29.9 mph 35.7 mph N/A Snow Light Snow
7:34 AM 15.8 °F -3.4 °F 10.4 °F 79% 29.59 in 10.0 mi NW 26.5 mph 36.8 mph N/A Snow Light Snow
7:54 AM 15.8 °F -4.4 °F 10.4 °F 79% 29.59 in 4.0 mi NW 29.9 mph 39.1 mph N/A Snow Light Snow
8:15 AM 15.8 °F -3.4 °F 10.4 °F 79% 29.60 in 3.0 mi NNW 26.5 mph 38.0 mph N/A Snow Light Snow
8:34 AM 15.8 °F -2.7 °F 10.4 °F 79% 29.61 in 3.0 mi NW 24.2 mph 34.5 mph N/A Snow Light Snow
8:54 AM 15.8 °F -4.4 °F 8.6 °F 73% 29.62 in 5.0 mi NW 29.9 mph 36.8 mph N/A   Haze
9:14 AM 15.8 °F -3.1 °F 10.4 °F 79% 29.63 in 3.0 mi NW 25.3 mph 33.4 mph N/A Snow Light Snow
9:34 AM 15.8 °F -4.1 °F 10.4 °F 79% 29.64 in 3.0 mi NW 28.8 mph 35.7 mph N/A Snow Light Snow
9:54 AM 15.8 °F -3.4 °F 8.6 °F 73% 29.65 in 4.0 mi NW 26.5 mph 36.8 mph N/A Snow Light Snow
10:15 AM 15.8 °F -3.1 °F 8.6 °F 73% 29.65 in 2.0 mi NNW 25.3 mph 33.4 mph N/A Snow Light Snow
10:34 AM 14.0 °F -5.8 °F 8.6 °F 79% 29.66 in 7.0 mi NNW 26.5 mph 38.0 mph N/A   Overcast
10:54 AM 14.0 °F -6.2 °F 6.8 °F 73% 29.67 in 7.0 mi NW 27.6 mph 36.8 mph N/A   Overcast
11:14 AM 14.0 °F -5.5 °F 6.8 °F 73% 29.68 in 7.0 mi NW 25.3 mph 36.8 mph N/A   Overcast
11:35 AM 12.2 °F -8.2 °F 6.8 °F 79% 29.68 in 7.0 mi NNW 26.5 mph 34.5 mph N/A   Overcast
11:55 AM 12.2 °F -7.9 °F 6.8 °F 79% 29.68 in 7.0 mi NW 25.3 mph 35.7 mph N/A   Overcast
12:14 PM 12.2 °F -8.9 °F 6.8 °F 79% 29.69 in 10.0 mi NW 28.8 mph 33.4 mph N/A   Overcast
12:34 PM 12.2 °F -8.6 °F 6.8 °F 79% 29.70 in 7.0 mi NW 27.6 mph 34.5 mph N/A   Overcast
12:55 PM 12.2 °F -8.9 °F 6.8 °F 79% 29.71 in 10.0 mi NW 28.8 mph 34.5 mph N/A   Overcast
1:14 PM 12.2 °F -7.9 °F 6.8 °F 79% 29.72 in 10.0 mi NW 25.3 mph 33.4 mph N/A   Overcast
1:35 PM 12.2 °F -7.9 °F 6.8 °F 79% 29.72 in 10.0 mi NW 25.3 mph 31.1 mph N/A   Overcast
1:54 PM 14.0 °F -6.5 °F 6.8 °F 73% 29.74 in 10.0 mi NW 28.8 mph 34.5 mph N/A   Overcast
2:14 PM 15.8 °F -3.1 °F 8.6 °F 73% 29.75 in 10.0 mi NW 25.3 mph 32.2 mph N/A   Overcast
2:34 PM 15.8 °F -3.1 °F 8.6 °F 73% 29.75 in 10.0 mi NNW 25.3 mph 34.5 mph N/A   Overcast
2:54 PM 15.8 °F -4.4 °F 8.6 °F 73% 29.76 in 10.0 mi NW 29.9 mph - N/A   Overcast
3:15 PM 17.6 °F -1.9 °F 10.4 °F 73% 29.77 in 10.0 mi NW 29.9 mph 36.8 mph N/A   Overcast
3:34 PM 17.6 °F -1.6 °F 10.4 °F 73% 29.78 in 10.0 mi NNW 28.8 mph 34.5 mph N/A   Mostly Cloudy
3:54 PM 17.6 °F 0.5 °F 10.4 °F 73% 29.80 in 10.0 mi NNW 21.9 mph 27.6 mph N/A   Scattered Clouds
4:14 PM 17.6 °F 1.3 °F 10.4 °F 73% 29.81 in 10.0 mi NW 19.6 mph 24.2 mph N/A   Clear
4:34 PM 17.6 °F 0.5 °F 12.2 °F 79% 29.83 in 10.0 mi NW 21.9 mph - N/A   Clear
4:55 PM 17.6 °F 1.3 °F 12.2 °F 79% 29.84 in 10.0 mi NW 19.6 mph 25.3 mph N/A   Clear
5:14 PM 19.4 °F 3.2 °F 14.0 °F 80% 29.85 in 10.0 mi NW 20.7 mph - N/A   Clear
5:34 PM 19.4 °F 3.6 °F 15.8 °F 86% 29.87 in 10.0 mi NW 19.6 mph - N/A   Clear
5:55 PM 19.4 °F 2.8 °F 14.0 °F 80% 29.89 in 10.0 mi NW 21.9 mph - N/A   Clear
6:15 PM 19.4 °F 2.8 °F 14.0 °F 80% 29.90 in 10.0 mi NW 21.9 mph 28.8 mph N/A   Clear
6:34 PM 19.4 °F 3.6 °F 12.2 °F 74% 29.91 in 10.0 mi NW 19.6 mph - N/A   Clear
6:54 PM 19.4 °F 4.1 °F 12.2 °F 74% 29.92 in 10.0 mi NW 18.4 mph - N/A   Clear
7:14 PM 19.4 °F 4.1 °F 12.2 °F 74% 29.93 in 10.0 mi NW 18.4 mph - N/A   Clear
7:34 PM 17.6 °F 1.3 °F 12.2 °F 79% 29.95 in 10.0 mi NW 19.6 mph 23.0 mph N/A   Clear
7:54 PM 17.6 °F 0.9 °F 12.2 °F 79% 29.95 in 10.0 mi NW 20.7 mph 25.3 mph N/A   Clear
8:14 PM 17.6 °F 0.9 °F 10.4 °F 73% 29.96 in 10.0 mi NW 20.7 mph - N/A   Clear
8:35 PM 17.6 °F 1.3 °F 10.4 °F 73% 29.97 in 10.0 mi NW 19.6 mph 25.3 mph N/A   Clear
8:54 PM 17.6 °F 2.2 °F 10.4 °F 73% 29.98 in 10.0 mi NW 17.3 mph 23.0 mph N/A   Clear
9:15 PM 15.8 °F 0.3 °F 8.6 °F 73% 29.98 in 10.0 mi NW 16.1 mph - N/A   Clear
9:34 PM 15.8 °F -0.2 °F 8.6 °F 73% 29.99 in 10.0 mi NW 17.3 mph - N/A   Clear
9:54 PM 15.8 °F 0.3 °F 8.6 °F 73% 30.00 in 10.0 mi NW 16.1 mph - N/A   Clear
10:15 PM 15.8 °F 0.3 °F 6.8 °F 68% 30.00 in 10.0 mi NW 16.1 mph - N/A   Clear
10:35 PM 15.8 °F 2.1 °F 6.8 °F 68% 30.01 in 10.0 mi NW 12.7 mph - N/A   Clear
10:54 PM 14.0 °F -0.2 °F 6.8 °F 73% 30.01 in 10.0 mi NW 12.7 mph - N/A   Clear
11:14 PM 14.0 °F 1.2 °F 6.8 °F 73% 30.01 in 10.0 mi NW 10.4 mph - N/A   Clear
11:34 PM 14.0 °F 2.9 °F 6.8 °F 73% 30.01 in 10.0 mi WNW 8.1 mph - N/A   Clear
11:54 PM 12.2 °F 0.7 °F 5.0 °F 73% 30.01 in 10.0 mi WNW 8.1 mph - N/A   Clear